Аэропорт
Kunming Wujiaba International Airport (ZPPP)

 ZPPP / KMG

China
CN-53
Kunming
 24.99240, 102.74400  / 6217 ft

 ZPPP 182200Z 03004MPS 7000 FEW010 SCT016 OVC030 14/14 Q1023 NOSIG
 TAF ZPPP 181503Z 1818/1918 04004MPS 6000 SCT020 BKN033 TX20/1908Z TN13/1823Z

2020 © VATRUS division (Privacy Policy)